Time;durP1;ratioP1;P1;durP2;ratioP2;P2;SDS_P1;SDS_P2;PMS_P1;PMS_P2;Temp;Humidity;BMP_temperature;BMP_pressure;BME280_temperature;BME280_humidity;BME280_pressure;Samples;Min_cycle;Max_cycle;Signal;HPM_P1;HPM_P2
2023/02/20 00:01:31;;;;;;;;;;;;;;;7.36;100.00;96642.59;10526470;28;2414;-67
2023/02/20 00:06:34;;;;;;;;;;;;;;;7.32;100.00;96643.09;10528675;28;3214;-69
2023/02/20 00:11:36;;;;;;;;;;;;;;;7.38;100.00;96654.72;10525039;28;3142;-70
2023/02/20 00:16:38;;;;;;;;;;;;;;;7.38;100.00;96651.22;10525597;28;2402;-70
2023/02/20 00:21:41;;;;;;;;;;;;;;;7.33;100.00;96654.59;10535725;28;2550;-70
2023/02/20 00:26:43;;;;;;;;;;;;;;;7.36;100.00;96651.44;10525084;28;2457;-69
2023/02/20 00:31:46;;;;;;;;;;;;;;;7.25;100.00;96654.91;10523761;28;2900;-70
2023/02/20 00:36:48;;;;;;;;;;;;;;;7.27;100.00;96664.34;10526154;28;2465;-69
2023/02/20 00:41:51;;;;;;;;;;;;;;;7.28;100.00;96649.13;10526904;28;2398;-69
2023/02/20 00:46:53;;;;;;;;;;;;;;;7.28;100.00;96647.25;10525129;28;2469;-69
2023/02/20 00:51:55;;;;;;;;;;;;;;;7.28;100.00;96649.94;10520742;28;3201;-71
2023/02/20 00:56:58;;;;;;;;;;;;;;;7.21;100.00;96646.56;10524690;28;3181;-70
2023/02/20 01:02:00;;;;;;;;;;;;;;;7.26;100.00;96641.34;10528191;28;2492;-69
2023/02/20 01:07:03;;;;;;;;;;;;;;;7.20;100.00;96647.59;10526799;28;2869;-69
2023/02/20 01:12:05;;;;;;;;;;;;;;;7.21;100.00;96635.84;10521268;28;3125;-68
2023/02/20 01:17:08;;;;;;;;;;;;;;;7.18;100.00;96641.66;10526535;28;3216;-68
2023/02/20 01:22:10;;;;;;;;;;;;;;;7.17;100.00;96649.91;10524639;28;2410;-69
2023/02/20 01:27:12;;;;;;;;;;;;;;;7.12;100.00;96641.75;10524613;28;3194;-68
2023/02/20 01:32:15;;;;;;;;;;;;;;;7.12;100.00;96641.75;10528927;28;3202;-69
2023/02/20 01:37:18;;;;;;;;;;;;;;;7.09;100.00;96636.88;10524230;28;2459;-68
2023/02/20 01:42:21;;;;;;;;;;;;;;;7.01;100.00;96638.84;10527756;28;3153;-73
2023/02/20 01:47:23;;;;;;;;;;;;;;;6.95;100.00;96636.28;10533420;28;2882;-70
2023/02/20 01:52:27;;;;;;;;;;;;;;;6.92;100.00;96642.06;10525275;28;2935;-67
2023/02/20 01:57:29;;;;;;;;;;;;;;;7.03;100.00;96627.94;10525744;28;2434;-68
2023/02/20 02:02:32;;;;;;;;;;;;;;;6.99;100.00;96627.56;10526140;28;2851;-68
2023/02/20 02:07:34;;;;;;;;;;;;;;;7.01;100.00;96620.13;10521042;28;3130;-68
2023/02/20 02:12:37;;;;;;;;;;;;;;;6.99;100.00;96616.88;10521665;28;2414;-69
2023/02/20 02:17:39;;;;;;;;;;;;;;;6.97;100.00;96608.28;10534197;28;2556;-68
2023/02/20 02:22:41;;;;;;;;;;;;;;;6.91;100.00;96619.88;10530722;28;2993;-70
2023/02/20 02:27:44;;;;;;;;;;;;;;;6.95;100.00;96628.25;10525824;28;2896;-68
2023/02/20 02:32:46;;;;;;;;;;;;;;;6.93;100.00;96617.78;10527618;28;2892;-67
2023/02/20 02:37:49;;;;;;;;;;;;;;;6.93;100.00;96617.78;10524084;28;2414;-72
2023/02/20 02:42:51;;;;;;;;;;;;;;;6.94;100.00;96607.94;10520950;28;2500;-68
2023/02/20 02:47:53;;;;;;;;;;;;;;;6.95;100.00;96610.38;10530663;28;2577;-68
2023/02/20 02:52:56;;;;;;;;;;;;;;;6.96;100.00;96606.66;10526214;28;2845;-69
2023/02/20 02:57:59;;;;;;;;;;;;;;;7.02;100.00;96605.72;10523671;28;3086;-69
2023/02/20 03:03:01;;;;;;;;;;;;;;;6.94;100.00;96605.25;10522360;28;2458;-68
2023/02/20 03:08:13;;;;;;;;;;;;;;;6.89;100.00;96611.28;10520692;28;2980;-68
2023/02/20 03:13:15;;;;;;;;;;;;;;;6.95;100.00;96617.56;10518899;28;2401;-69
2023/02/20 03:18:19;;;;;;;;;;;;;;;6.95;100.00;96620.25;10528165;28;2468;-68
2023/02/20 03:23:21;;;;;;;;;;;;;;;6.84;100.00;96618.34;10532802;28;2465;-67
2023/02/20 03:28:24;;;;;;;;;;;;;;;6.93;100.00;96607.09;10532386;28;3142;-68
2023/02/20 03:44:06;;;;;;;;;;;;;;;6.84;100.00;96595.13;10529057;28;3243;-70
2023/02/20 03:49:09;;;;;;;;;;;;;;;6.69;100.00;96590.22;10528971;28;2438;-70
2023/02/20 03:54:11;;;;;;;;;;;;;;;6.46;100.00;96595.47;10529700;28;2441;-68
2023/02/20 03:59:14;;;;;;;;;;;;;;;6.31;100.00;96611.94;10528462;28;2441;-70
2023/02/20 04:04:16;;;;;;;;;;;;;;;6.29;100.00;96605.97;10523989;28;2476;-69
2023/02/20 04:09:19;;;;;;;;;;;;;;;6.32;100.00;96616.22;10527102;28;2418;-69
2023/02/20 04:14:21;;;;;;;;;;;;;;;6.29;100.00;96616.66;10521308;28;2474;-69
2023/02/20 04:19:23;;;;;;;;;;;;;;;6.16;100.00;96616.81;10535112;28;2518;-69
2023/02/20 04:24:26;;;;;;;;;;;;;;;5.95;100.00;96610.94;10524168;28;2976;-68
2023/02/20 04:29:28;;;;;;;;;;;;;;;5.90;100.00;96613.41;10529300;28;2430;-67
2023/02/20 04:34:30;;;;;;;;;;;;;;;5.80;100.00;96612.31;10528707;28;2439;-68
2023/02/20 04:39:33;;;;;;;;;;;;;;;5.74;100.00;96619.38;10529990;28;2394;-68
2023/02/20 04:44:36;;;;;;;;;;;;;;;5.67;100.00;96623.97;10521566;28;3527;-69
2023/02/20 04:49:38;;;;;;;;;;;;;;;5.68;100.00;96625.59;10529409;28;2437;-68
2023/02/20 04:54:40;;;;;;;;;;;;;;;5.56;100.00;96609.50;10520140;28;3211;-69
2023/02/20 04:59:43;;;;;;;;;;;;;;;5.50;100.00;96602.38;10537364;28;2887;-69
2023/02/20 05:04:45;;;;;;;;;;;;;;;5.38;100.00;96610.28;10521055;28;2406;-69
2023/02/20 05:09:47;;;;;;;;;;;;;;;5.38;100.00;96610.28;10524224;28;3138;-68
2023/02/20 05:14:50;;;;;;;;;;;;;;;5.38;100.00;96598.81;10526994;28;2886;-69
2023/02/20 05:19:52;;;;;;;;;;;;;;;5.31;100.00;96609.53;10525730;28;3061;-70
2023/02/20 05:24:55;;;;;;;;;;;;;;;5.28;100.00;96620.66;10510342;28;2861;-70
2023/02/20 05:29:57;;;;;;;;;;;;;;;5.24;100.00;96631.97;10523031;28;2869;-69
2023/02/20 05:35:00;;;;;;;;;;;;;;;5.15;100.00;96628.75;10527838;28;2449;-69
2023/02/20 05:40:02;;;;;;;;;;;;;;;5.07;100.00;96631.69;10525670;28;3142;-66
2023/02/20 05:45:05;;;;;;;;;;;;;;;5.10;100.00;96629.41;10530779;28;3184;-68
2023/02/20 05:50:07;;;;;;;;;;;;;;;5.10;100.00;96633.94;10524809;28;2540;-68
2023/02/20 05:55:09;;;;;;;;;;;;;;;5.06;100.00;96638.88;10530472;28;2410;-68
2023/02/20 06:00:12;;;;;;;;;;;;;;;5.02;100.00;96631.50;10540892;28;3142;-68
2023/02/20 06:05:15;;;;;;;;;;;;;;;5.02;100.00;96636.84;10521332;28;2882;-69
2023/02/20 06:10:17;;;;;;;;;;;;;;;4.94;100.00;96650.44;10520300;28;2829;-69
2023/02/20 06:15:19;;;;;;;;;;;;;;;4.94;100.00;96666.44;10518428;28;3116;-68
2023/02/20 06:20:22;;;;;;;;;;;;;;;4.88;100.00;96660.94;10517304;28;3192;-69
2023/02/20 06:25:24;;;;;;;;;;;;;;;4.93;100.00;96664.81;10527088;28;2604;-68
2023/02/20 06:30:27;;;;;;;;;;;;;;;5.02;100.00;96660.81;10521986;28;2541;-68
2023/02/20 06:35:30;;;;;;;;;;;;;;;5.10;100.00;96660.59;10513670;28;3263;-68
2023/02/20 06:40:32;;;;;;;;;;;;;;;5.05;100.00;96653.22;10500413;28;2604;-69
2023/02/20 06:45:34;;;;;;;;;;;;;;;5.07;100.00;96653.00;10522983;28;3295;-69
2023/02/20 06:50:37;;;;;;;;;;;;;;;5.13;100.00;96660.94;10525277;28;3345;-70
2023/02/20 06:55:39;;;;;;;;;;;;;;;5.18;100.00;96659.50;10530458;28;3429;-69
2023/02/20 07:00:42;;;;;;;;;;;;;;;5.23;100.00;96665.81;10532005;28;3301;-68
2023/02/20 07:05:44;;;;;;;;;;;;;;;5.30;100.00;96666.56;10526791;28;3059;-71
2023/02/20 07:10:46;;;;;;;;;;;;;;;5.33;100.00;96663.44;10528240;28;2688;-68
2023/02/20 07:15:49;;;;;;;;;;;;;;;5.38;100.00;96668.94;10525797;28;3357;-68
2023/02/20 07:20:51;;;;;;;;;;;;;;;5.46;100.00;96680.34;10534881;28;3055;-66
2023/02/20 07:25:56;;;;;;;;;;;;;;;5.73;100.00;96687.09;10530436;28;2833;-70
2023/02/20 07:30:58;;;;;;;;;;;;;;;5.78;100.00;96687.22;10531455;28;3251;-70
2023/02/20 07:36:01;;;;;;;;;;;;;;;5.83;100.00;96681.25;10531311;28;3392;-68
2023/02/20 07:41:03;;;;;;;;;;;;;;;5.81;100.00;96688.66;10525147;28;2632;-69
2023/02/20 07:46:06;;;;;;;;;;;;;;;5.76;100.00;96672.50;10526581;28;3323;-69
2023/02/20 07:51:09;;;;;;;;;;;;;;;5.76;100.00;96681.31;10527415;28;3038;-71
2023/02/20 07:56:11;;;;;;;;;;;;;;;5.85;100.00;96660.47;10529047;28;3325;-68
2023/02/20 08:01:14;;;;;;;;;;;;;;;6.15;100.00;96656.06;10526621;28;3139;-71
2023/02/20 08:06:17;;;;;;;;;;;;;;;6.54;100.00;96650.44;10531016;28;3398;-67
2023/02/20 08:11:20;;;;;;;;;;;;;;;6.77;100.00;96639.84;10525570;28;2593;-68
2023/02/20 08:16:23;;;;;;;;;;;;;;;6.97;100.00;96621.63;10529056;28;3274;-68
2023/02/20 08:21:25;;;;;;;;;;;;;;;6.91;100.00;96630.56;10529282;28;2593;-68
2023/02/20 08:26:28;;;;;;;;;;;;;;;6.91;100.00;96625.22;10524139;28;3021;-71
2023/02/20 08:31:30;;;;;;;;;;;;;;;7.02;100.00;96618.28;10523882;28;2596;-72
2023/02/20 08:36:34;;;;;;;;;;;;;;;7.45;100.00;96609.94;10525471;28;2605;-72
2023/02/20 08:41:36;;;;;;;;;;;;;;;8.03;100.00;96614.41;10527187;28;3034;-73
2023/02/20 08:46:39;;;;;;;;;;;;;;;8.26;100.00;96604.66;10523115;28;3034;-71
2023/02/20 08:51:41;;;;;;;;;;;;;;;8.28;100.00;96597.22;10523086;28;2613;-71
2023/02/20 08:56:44;;;;;;;;;;;;;;;8.45;100.00;96587.38;10524174;28;3056;-73
2023/02/20 09:01:47;;;;;;;;;;;;;;;8.26;100.00;96593.94;10525105;28;3065;-78
2023/02/20 09:06:49;;;;;;;;;;;;;;;8.22;100.00;96577.56;10526285;28;2596;-72
2023/02/20 09:11:52;;;;;;;;;;;;;;;8.38;100.00;96567.94;10530385;28;3153;-71
2023/02/20 09:16:54;;;;;;;;;;;;;;;8.57;100.00;96557.84;10525686;28;2526;-72
2023/02/20 09:21:57;;;;;;;;;;;;;;;8.90;100.00;96567.78;10528706;28;3310;-73
2023/02/20 09:27:00;;;;;;;;;;;;;;;8.93;100.00;96561.94;10524115;28;3011;-71
2023/02/20 09:32:02;;;;;;;;;;;;;;;9.33;100.00;96548.34;10524059;28;2660;-72
2023/02/20 09:37:05;;;;;;;;;;;;;;;9.41;100.00;96569.38;10518985;28;2666;-72
2023/02/20 09:42:07;;;;;;;;;;;;;;;9.51;100.00;96565.22;10531307;28;3329;-72
2023/02/20 09:47:09;;;;;;;;;;;;;;;9.86;100.00;96548.75;10523431;28;2704;-73
2023/02/20 09:52:12;;;;;;;;;;;;;;;10.00;100.00;96539.28;10528039;28;2560;-72
2023/02/20 09:57:14;;;;;;;;;;;;;;;9.94;100.00;96495.44;10520686;28;2700;-73
2023/02/20 10:02:17;;;;;;;;;;;;;;;9.83;100.00;96490.19;10521602;28;2671;-74
2023/02/20 10:07:20;;;;;;;;;;;;;;;9.88;100.00;96517.13;10520154;28;2594;-73
2023/02/20 10:12:22;;;;;;;;;;;;;;;10.37;100.00;96495.63;10525825;28;3007;-72
2023/02/20 10:17:25;;;;;;;;;;;;;;;10.79;100.00;96485.78;10521900;28;3314;-72
2023/02/20 10:22:27;;;;;;;;;;;;;;;10.95;100.00;96489.41;10521082;28;3040;-71
2023/02/20 10:27:30;;;;;;;;;;;;;;;11.02;100.00;96487.28;10525854;28;3150;-72
2023/02/20 10:32:33;;;;;;;;;;;;;;;11.10;100.00;96494.06;10507580;28;2556;-73
2023/02/20 10:37:36;;;;;;;;;;;;;;;11.43;100.00;96498.31;10523730;28;3380;-77
2023/02/20 10:42:49;;;;;;;;;;;;;;;11.31;100.00;96490.41;10529993;28;2736;-76
2023/02/20 10:47:51;;;;;;;;;;;;;;;11.09;100.00;96476.31;10529510;28;3271;-75
2023/02/20 10:52:54;;;;;;;;;;;;;;;10.81;100.00;96470.22;10505831;28;3266;-73
2023/02/20 10:57:57;;;;;;;;;;;;;;;10.77;100.00;96462.91;10521700;28;2593;-71
2023/02/20 11:02:59;;;;;;;;;;;;;;;10.71;100.00;96469.31;10523414;28;3010;-74
2023/02/20 11:08:02;;;;;;;;;;;;;;;10.74;100.00;96464.22;10531775;28;3459;-73
2023/02/20 11:13:04;;;;;;;;;;;;;;;10.87;100.00;96448.72;10529983;28;3397;-71
2023/02/20 11:18:07;;;;;;;;;;;;;;;11.02;98.80;96438.06;10525738;28;2593;-74
2023/02/20 11:23:10;;;;;;;;;;;;;;;11.05;97.19;96430.25;10530353;28;3282;-70
2023/02/20 11:28:13;;;;;;;;;;;;;;;11.11;92.97;96401.50;10526600;28;3062;-70
2023/02/20 11:33:15;;;;;;;;;;;;;;;11.27;93.47;96408.59;10530529;28;2621;-70
2023/02/20 11:38:18;;;;;;;;;;;;;;;11.42;91.59;96410.53;10525279;28;3303;-71
2023/02/20 11:43:20;;;;;;;;;;;;;;;11.48;89.55;96400.59;10525011;28;2600;-72
2023/02/20 11:48:22;;;;;;;;;;;;;;;11.62;88.13;96399.03;10525888;28;3339;-72
2023/02/20 11:53:25;;;;;;;;;;;;;;;11.77;87.75;96382.94;10529208;28;3370;-71
2023/02/20 11:58:27;;;;;;;;;;;;;;;11.75;86.72;96376.97;10526144;28;3042;-71
2023/02/20 12:03:31;;;;;;;;;;;;;;;11.95;85.00;96368.16;10526266;28;2990;-72
2023/02/20 12:08:33;;;;;;;;;;;;;;;12.05;84.14;96354.72;10530479;28;3282;-75
2023/02/20 12:13:36;;;;;;;;;;;;;;;11.99;86.43;96363.06;10530330;28;2549;-73
2023/02/20 12:18:38;;;;;;;;;;;;;;;12.09;84.57;96352.28;10521032;28;3195;-70
2023/02/20 12:23:40;;;;;;;;;;;;;;;12.01;84.67;96342.84;10526282;28;3105;-70
2023/02/20 12:28:43;;;;;;;;;;;;;;;12.34;81.36;96335.28;10525186;28;3260;-71
2023/02/20 12:33:47;;;;;;;;;;;;;;;12.41;79.61;96338.53;10528573;28;2986;-71
2023/02/20 12:38:49;;;;;;;;;;;;;;;12.43;78.98;96328.28;10526705;28;3316;-71
2023/02/20 12:43:52;;;;;;;;;;;;;;;12.51;79.03;96318.84;10530583;28;2753;-71
2023/02/20 12:49:09;;;;;;;;;;;;;;;12.55;78.82;96319.91;10526298;28;3022;-70
2023/02/20 12:54:11;;;;;;;;;;;;;;;12.58;77.75;96293.19;10523369;28;3361;-71
2023/02/20 12:59:14;;;;;;;;;;;;;;;12.72;76.63;96288.03;10518442;28;2693;-73
2023/02/20 13:04:19;;;;;;;;;;;;;;;12.58;79.45;96284.28;10525465;28;3367;-72
2023/02/20 13:09:22;;;;;;;;;;;;;;;12.47;80.39;96288.94;10529690;28;3274;-71
2023/02/20 13:14:24;;;;;;;;;;;;;;;12.48;80.71;96271.66;10526928;28;3389;-74
2023/02/20 13:19:26;;;;;;;;;;;;;;;12.58;81.97;96277.00;10523905;28;3058;-75
2023/02/20 13:24:29;;;;;;;;;;;;;;;12.81;76.13;96289.09;10524379;28;2935;-73
2023/02/20 13:29:31;;;;;;;;;;;;;;;12.69;76.67;96267.00;10522085;28;2915;-74
2023/02/20 13:34:33;;;;;;;;;;;;;;;12.83;76.80;96273.44;10522798;28;2987;-74
2023/02/20 13:39:36;;;;;;;;;;;;;;;12.98;75.17;96270.69;10526619;28;2661;-74
2023/02/20 13:44:39;;;;;;;;;;;;;;;12.99;71.66;96266.91;10526209;28;3198;-75
2023/02/20 13:49:41;;;;;;;;;;;;;;;12.97;71.53;96250.16;10527644;28;3053;-74
2023/02/20 13:54:44;;;;;;;;;;;;;;;13.00;71.93;96256.91;10524314;28;3386;-73
2023/02/20 13:59:46;;;;;;;;;;;;;;;13.04;72.17;96247.19;10525093;28;2666;-74
2023/02/20 14:04:48;;;;;;;;;;;;;;;13.18;72.88;96240.09;10526310;28;2569;-74
2023/02/20 14:09:51;;;;;;;;;;;;;;;13.18;74.42;96237.41;10517415;28;3314;-74
2023/02/20 14:14:53;;;;;;;;;;;;;;;13.15;73.38;96237.13;10518409;28;3022;-73
2023/02/20 14:19:56;;;;;;;;;;;;;;;13.08;72.54;96225.84;10518998;28;3381;-74
2023/02/20 14:25:13;;;;;;;;;;;;;;;13.12;72.19;96216.09;10521228;28;3367;-73
2023/02/20 14:30:15;;;;;;;;;;;;;;;12.97;74.23;96215.09;10523018;28;3375;-74
2023/02/20 14:35:22;;;;;;;;;;;;;;;12.97;75.12;96209.69;10523328;28;3094;-74
2023/02/20 14:40:25;;;;;;;;;;;;;;;13.05;73.17;96199.41;10518863;28;3387;-74
2023/02/20 14:45:27;;;;;;;;;;;;;;;13.00;71.05;96189.44;10525295;28;2609;-73
2023/02/20 14:50:30;;;;;;;;;;;;;;;12.96;69.18;96181.09;10539002;28;3088;-72
2023/02/20 14:55:32;;;;;;;;;;;;;;;12.99;68.29;96177.03;10521088;28;3269;-75
2023/02/20 15:00:34;;;;;;;;;;;;;;;12.98;68.87;96168.16;10521142;28;2612;-73
2023/02/20 15:05:37;;;;;;;;;;;;;;;12.95;67.98;96157.91;10520453;28;3026;-73
2023/02/20 15:10:39;;;;;;;;;;;;;;;12.90;68.27;96160.63;10526593;28;3283;-72
2023/02/20 15:15:42;;;;;;;;;;;;;;;12.86;67.88;96156.88;10526960;28;3318;-74
2023/02/20 15:20:44;;;;;;;;;;;;;;;12.85;68.25;96152.56;10533905;28;2549;-74
2023/02/20 15:25:47;;;;;;;;;;;;;;;12.79;69.15;96150.16;10524533;28;2560;-74
2023/02/20 15:30:49;;;;;;;;;;;;;;;12.66;71.20;96138.09;10500929;28;2983;-74
2023/02/20 15:35:52;;;;;;;;;;;;;;;12.46;71.27;96128.19;10531020;28;3034;-75
2023/02/20 15:40:54;;;;;;;;;;;;;;;12.32;73.33;96122.59;10530816;28;2609;-73
2023/02/20 15:45:57;;;;;;;;;;;;;;;12.41;70.08;96120.97;10525525;28;3031;-72
2023/02/20 15:50:59;;;;;;;;;;;;;;;12.55;68.62;96123.06;10532122;28;3034;-74
2023/02/20 15:56:02;;;;;;;;;;;;;;;12.27;70.66;96114.53;10531750;28;3216;-72
2023/02/20 16:01:04;;;;;;;;;;;;;;;12.32;70.23;96111.81;10537667;28;2570;-74
2023/02/20 16:06:06;;;;;;;;;;;;;;;12.35;71.30;96105.91;10531495;28;3307;-72
2023/02/20 16:11:09;;;;;;;;;;;;;;;12.22;72.47;96117.28;10535439;28;2498;-74
2023/02/20 16:16:11;;;;;;;;;;;;;;;12.14;73.97;96115.94;10530705;28;2616;-75
2023/02/20 16:21:25;;;;;;;;;;;;;;;11.93;76.97;96110.88;10537125;28;2545;-76
2023/02/20 16:26:28;;;;;;;;;;;;;;;11.79;79.14;96114.13;10536129;28;3394;-74
2023/02/20 16:31:30;;;;;;;;;;;;;;;11.65;81.12;96115.78;10536160;28;3411;-74
2023/02/20 16:36:33;;;;;;;;;;;;;;;11.48;83.33;96113.34;10529274;28;2596;-74
2023/02/20 16:41:35;;;;;;;;;;;;;;;11.24;85.96;96117.66;10530894;28;2605;-74
2023/02/20 16:46:38;;;;;;;;;;;;;;;11.13;89.13;96116.84;10527675;28;3046;-73
2023/02/20 16:51:47;;;;;;;;;;;;;;;10.64;93.47;96135.34;10529432;28;3065;-73
2023/02/20 16:56:50;;;;;;;;;;;;;;;10.59;95.71;96132.63;10526288;28;2581;-71
2023/02/20 17:01:52;;;;;;;;;;;;;;;10.45;96.80;96129.66;10526805;28;3098;-73
2023/02/20 17:06:55;;;;;;;;;;;;;;;10.17;100.00;96137.00;10527314;28;3195;-72
2023/02/20 17:11:57;;;;;;;;;;;;;;;10.04;100.00;96137.47;10530497;28;3092;-70
2023/02/20 17:17:00;;;;;;;;;;;;;;;10.03;100.00;96138.56;10526261;28;2537;-70
2023/02/20 17:22:02;;;;;;;;;;;;;;;10.08;100.00;96154.72;10523638;28;2721;-69
2023/02/20 17:27:05;;;;;;;;;;;;;;;9.80;100.00;96149.69;10525705;28;3362;-69
2023/02/20 17:32:07;;;;;;;;;;;;;;;9.52;100.00;96145.50;10530297;28;3426;-69
2023/02/20 17:37:10;;;;;;;;;;;;;;;9.44;100.00;96168.25;10528231;28;3266;-70
2023/02/20 17:42:12;;;;;;;;;;;;;;;9.30;100.00;96154.47;10528102;28;2975;-70
2023/02/20 17:47:15;;;;;;;;;;;;;;;8.97;100.00;96154.69;10521234;28;2636;-71
2023/02/20 17:52:17;;;;;;;;;;;;;;;8.83;100.00;96163.13;10527212;28;3018;-71
2023/02/20 17:57:20;;;;;;;;;;;;;;;8.62;100.00;96164.78;10530261;28;2994;-71
2023/02/20 18:02:24;;;;;;;;;;;;;;;8.69;100.00;96163.78;10524952;28;3268;-70
2023/02/20 18:07:27;;;;;;;;;;;;;;;8.71;100.00;96167.81;10527997;28;3057;-70
2023/02/20 18:12:30;;;;;;;;;;;;;;;8.58;100.00;96174.38;10525504;28;3311;-70
2023/02/20 18:17:33;;;;;;;;;;;;;;;8.62;100.00;96164.78;10525589;28;2604;-71
2023/02/20 18:22:36;;;;;;;;;;;;;;;8.63;100.00;96162.91;10518651;28;2676;-69
2023/02/20 18:27:38;;;;;;;;;;;;;;;8.82;100.00;96163.38;10522477;28;2650;-71
2023/02/20 18:32:40;;;;;;;;;;;;;;;8.52;100.00;96153.94;10521821;28;3026;-71
2023/02/20 18:37:43;;;;;;;;;;;;;;;8.43;100.00;96152.78;10518032;28;3089;-70
2023/02/20 18:42:46;;;;;;;;;;;;;;;8.23;100.00;96141.81;10522776;28;3382;-70
2023/02/20 18:47:48;;;;;;;;;;;;;;;8.32;100.00;96134.94;10528038;28;2721;-70
2023/02/20 18:52:51;;;;;;;;;;;;;;;8.32;100.00;96134.94;10532482;28;3034;-71
2023/02/20 18:57:53;;;;;;;;;;;;;;;8.44;100.00;96122.25;10526193;28;3326;-70
2023/02/20 19:02:56;;;;;;;;;;;;;;;8.26;100.00;96127.91;10525079;28;2612;-73
2023/02/20 19:07:59;;;;;;;;;;;;;;;8.41;100.00;96119.28;10528907;28;2593;-70
2023/02/20 19:13:01;;;;;;;;;;;;;;;8.38;100.00;96104.50;10531308;28;2963;-71
2023/02/20 19:18:04;;;;;;;;;;;;;;;8.41;100.00;96093.31;10525920;28;3119;-71
2023/02/20 19:23:06;;;;;;;;;;;;;;;8.31;100.00;96103.88;10528526;28;2581;-71
2023/02/20 19:28:10;;;;;;;;;;;;;;;8.28;100.00;96093.66;10543907;28;3024;-71
2023/02/20 19:33:12;;;;;;;;;;;;;;;8.23;100.00;96089.06;10527187;28;3432;-70
2023/02/20 19:38:15;;;;;;;;;;;;;;;8.31;100.00;96083.25;10529142;28;3450;-70
2023/02/20 19:43:17;;;;;;;;;;;;;;;8.42;100.00;96094.91;10529333;28;2983;-70
2023/02/20 19:48:19;;;;;;;;;;;;;;;8.38;100.00;96089.25;10527537;28;3091;-72
2023/02/20 19:53:22;;;;;;;;;;;;;;;8.42;100.00;96075.34;10529400;28;2597;-73
2023/02/20 19:58:25;;;;;;;;;;;;;;;8.37;100.00;96081.47;10535651;28;3079;-74
2023/02/20 20:03:27;;;;;;;;;;;;;;;8.35;100.00;96072.84;10513661;28;3353;-75
2023/02/20 20:08:29;;;;;;;;;;;;;;;8.31;100.00;96066.38;10522239;28;2617;-70
2023/02/20 20:13:32;;;;;;;;;;;;;;;8.33;100.00;96064.22;10528455;28;3159;-69
2023/02/20 20:18:34;;;;;;;;;;;;;;;8.45;100.00;96062.25;10524835;28;3349;-71
2023/02/20 20:23:37;;;;;;;;;;;;;;;8.31;100.00;96058.34;10522393;28;3341;-71
2023/02/20 20:28:39;;;;;;;;;;;;;;;8.36;100.00;96056.56;10533495;28;3270;-69
2023/02/20 20:33:41;;;;;;;;;;;;;;;8.33;100.00;96043.66;10525747;28;2584;-70
2023/02/20 20:38:44;;;;;;;;;;;;;;;8.36;100.00;96050.38;10530527;28;3371;-69
2023/02/20 20:43:46;;;;;;;;;;;;;;;8.24;100.00;96058.53;10545448;28;3466;-70
2023/02/20 20:48:48;;;;;;;;;;;;;;;8.25;100.00;96049.44;10526429;28;3030;-70
2023/02/20 20:53:51;;;;;;;;;;;;;;;8.22;100.00;96063.34;10525989;28;2987;-70
2023/02/20 20:58:53;;;;;;;;;;;;;;;8.03;100.00;96067.41;10525862;28;2665;-70
2023/02/20 21:03:56;;;;;;;;;;;;;;;8.05;100.00;96070.63;10529535;28;2712;-70
2023/02/20 21:08:58;;;;;;;;;;;;;;;7.92;100.00;96082.53;10522836;28;3303;-73
2023/02/20 21:14:00;;;;;;;;;;;;;;;7.70;100.00;96081.69;10523656;28;2990;-70
2023/02/20 21:19:03;;;;;;;;;;;;;;;7.63;100.00;96097.94;10497981;28;2986;-70
2023/02/20 21:24:05;;;;;;;;;;;;;;;7.61;100.00;96084.00;10520620;28;3145;-72
2023/02/20 21:29:08;;;;;;;;;;;;;;;7.47;100.00;96091.56;10523000;28;3510;-70
2023/02/20 21:34:10;;;;;;;;;;;;;;;7.56;100.00;96079.38;10526160;28;2502;-71
2023/02/20 21:39:13;;;;;;;;;;;;;;;7.58;100.00;96082.63;10524314;28;3690;-70
2023/02/20 21:44:27;;;;;;;;;;;;;;;7.53;100.00;96087.09;10519953;28;3041;-69
2023/02/20 21:49:30;;;;;;;;;;;;;;;7.44;100.00;96084.00;10515151;28;3319;-70
2023/02/20 21:54:32;;;;;;;;;;;;;;;7.37;100.00;96078.03;10529013;28;2550;-72
